createdAt,value
2022-12-15T00:02:10.062Z,84.24
2022-12-15T00:04:54.785Z,84.97
2022-12-15T00:07:39.687Z,84.45
2022-12-15T00:10:24.953Z,84.82
2022-12-15T00:13:10.003Z,84.08
2022-12-15T00:15:54.837Z,84.52
2022-12-15T00:18:39.783Z,84.03
2022-12-15T00:21:25.303Z,84.80
2022-12-15T00:24:10.009Z,84.90
2022-12-15T00:26:54.919Z,84.53
2022-12-15T00:29:39.798Z,84.63
2022-12-15T00:32:24.967Z,84.45
2022-12-15T00:35:10.021Z,84.34
2022-12-15T00:37:54.819Z,84.13
2022-12-15T00:40:21.150Z,84.39
2022-12-15T00:42:49.544Z,84.51
2022-12-15T00:45:16.311Z,84.18
2022-12-15T00:47:42.682Z,84.80
2022-12-15T00:50:27.958Z,84.54
2022-12-15T00:53:12.751Z,84.61
2022-12-15T00:55:57.511Z,84.33
2022-12-15T00:58:42.319Z,84.65
2022-12-15T01:01:28.667Z,84.72
2022-12-15T01:04:14.066Z,84.76
2022-12-15T01:06:59.143Z,84.61
2022-12-15T01:09:44.105Z,84.81
2022-12-15T01:12:29.008Z,84.78
2022-12-15T01:15:13.811Z,84.79
2022-12-15T01:17:58.711Z,84.44
2022-12-15T01:20:25.072Z,84.11
2022-12-15T01:22:54.138Z,84.68
2022-12-15T01:25:22.978Z,84.49
2022-12-15T01:27:49.921Z,84.75
2022-12-15T01:30:23.740Z,84.34
2022-12-15T01:32:50.684Z,84.91
2022-12-15T01:35:17.707Z,84.44
2022-12-15T01:37:44.491Z,84.81
2022-12-15T01:40:34.820Z,84.96
2022-12-15T01:43:01.672Z,85.24
2022-12-15T01:45:30.799Z,84.75
2022-12-15T01:48:02.835Z,84.99
2022-12-15T01:50:31.545Z,84.94
2022-12-15T01:52:57.899Z,84.57
2022-12-15T01:55:27.782Z,84.73
2022-12-15T01:57:59.547Z,84.79
2022-12-15T02:00:26.669Z,85.00
2022-12-15T02:02:54.122Z,85.19
2022-12-15T02:05:21.849Z,84.53
2022-12-15T02:07:48.204Z,84.67
2022-12-15T02:10:16.499Z,85.00
2022-12-15T02:13:15.622Z,85.28
2022-12-15T02:15:56.036Z,85.18
2022-12-15T02:18:32.314Z,84.83
2022-12-15T02:21:07.286Z,84.84
2022-12-15T02:23:52.976Z,85.41
2022-12-15T02:26:25.407Z,85.73
2022-12-15T02:29:17.906Z,85.55
2022-12-15T02:31:52.370Z,84.92
2022-12-15T02:34:43.108Z,84.69
2022-12-15T02:37:26.203Z,85.45
2022-12-15T02:39:52.571Z,84.87
2022-12-15T02:42:19.295Z,85.03
2022-12-15T02:44:57.399Z,85.01
2022-12-15T02:47:46.185Z,84.52
2022-12-15T02:50:18.617Z,84.67
2022-12-15T02:53:15.174Z,85.14
2022-12-15T02:55:57.817Z,84.77
2022-12-15T02:58:35.134Z,85.26
2022-12-15T03:01:16.652Z,84.76
2022-12-15T03:03:43.856Z,85.24
2022-12-15T03:06:10.410Z,84.67
2022-12-15T03:08:36.772Z,84.85
2022-12-15T03:11:03.330Z,84.99
2022-12-15T03:13:30.138Z,85.09
2022-12-15T03:15:58.158Z,84.58
2022-12-15T03:18:24.519Z,84.80
2022-12-15T03:20:50.912Z,84.82
2022-12-15T03:23:17.287Z,84.59
2022-12-15T03:25:46.726Z,85.14
2022-12-15T03:28:16.613Z,84.96
2022-12-15T03:30:43.109Z,84.88
2022-12-15T03:33:11.113Z,84.85
2022-12-15T03:35:37.447Z,85.27
2022-12-15T03:38:03.966Z,85.05
2022-12-15T03:40:30.359Z,84.99
2022-12-15T03:42:56.907Z,84.95
2022-12-15T03:45:25.731Z,85.29
2022-12-15T03:47:53.266Z,85.01
2022-12-15T03:50:22.122Z,84.94
2022-12-15T03:52:57.624Z,85.12
2022-12-15T03:55:24.487Z,84.88
2022-12-15T03:57:51.237Z,85.40
2022-12-15T04:00:19.502Z,85.18
2022-12-15T04:02:47.206Z,85.10
2022-12-15T04:05:23.128Z,85.13
2022-12-15T04:07:49.488Z,84.91
2022-12-15T04:10:16.112Z,85.27
2022-12-15T04:12:42.546Z,84.76
2022-12-15T04:15:10.613Z,85.48
2022-12-15T04:17:37.825Z,85.18
2022-12-15T04:20:11.701Z,85.52
2022-12-15T04:22:43.064Z,85.72
2022-12-15T04:25:31.616Z,85.46
2022-12-15T04:28:16.343Z,85.40
2022-12-15T04:31:06.800Z,85.53
2022-12-15T04:33:52.656Z,85.44
2022-12-15T04:36:37.422Z,86.08
2022-12-15T04:39:23.621Z,85.36
2022-12-15T04:42:09.984Z,85.57
2022-12-15T04:44:55.297Z,85.75
2022-12-15T04:47:40.123Z,85.91
2022-12-15T04:50:25.214Z,85.45
2022-12-15T04:53:09.984Z,85.66
2022-12-15T04:55:56.089Z,85.39
2022-12-15T04:58:41.318Z,86.00
2022-12-15T05:01:26.100Z,85.77
2022-12-15T05:04:10.933Z,85.75
2022-12-15T05:06:55.729Z,85.37
2022-12-15T05:09:40.651Z,85.52
2022-12-15T05:12:25.370Z,85.27
2022-12-15T05:15:10.463Z,85.90
2022-12-15T05:17:55.162Z,85.71
2022-12-15T05:20:40.114Z,85.74
2022-12-15T05:23:24.762Z,85.86
2022-12-15T05:26:09.607Z,86.17
2022-12-15T05:28:54.363Z,86.10
2022-12-15T05:31:39.149Z,85.57
2022-12-15T05:34:05.990Z,86.12
2022-12-15T05:36:32.887Z,85.42
2022-12-15T05:38:59.240Z,85.69
2022-12-15T05:41:25.605Z,85.35
2022-12-15T05:43:52.048Z,85.81
2022-12-15T05:46:18.487Z,85.84
2022-12-15T05:48:45.209Z,85.58
2022-12-15T05:51:12.332Z,85.68
2022-12-15T05:53:40.421Z,85.57
2022-12-15T05:56:14.547Z,85.37
2022-12-15T05:58:45.524Z,85.46
2022-12-15T06:01:15.182Z,85.53
2022-12-15T06:03:42.304Z,85.87
2022-12-15T06:06:10.244Z,85.42
2022-12-15T06:08:39.388Z,85.97
2022-12-15T06:11:06.450Z,85.64
2022-12-15T06:13:36.999Z,85.59
2022-12-15T06:16:06.865Z,85.19
2022-12-15T06:18:40.062Z,85.56
2022-12-15T06:21:12.649Z,85.22
2022-12-15T06:23:39.745Z,86.03
2022-12-15T06:26:17.932Z,86.01
2022-12-15T06:28:44.655Z,85.70
2022-12-15T06:31:12.093Z,86.09
2022-12-15T06:33:39.250Z,86.58
2022-12-15T06:36:08.350Z,86.87
2022-12-15T06:38:36.101Z,86.47
2022-12-15T06:41:04.458Z,86.35
2022-12-15T06:43:33.001Z,86.47
2022-12-15T06:46:01.899Z,85.88
2022-12-15T06:48:28.708Z,85.91
2022-12-15T06:50:55.259Z,86.40
2022-12-15T06:53:24.000Z,86.11
2022-12-15T06:55:50.615Z,85.93
2022-12-15T06:58:18.149Z,86.52
2022-12-15T07:00:46.307Z,86.30
2022-12-15T07:03:15.581Z,86.69
2022-12-15T07:05:43.708Z,86.53
2022-12-15T07:08:15.849Z,86.46
2022-12-15T07:10:44.134Z,86.28
2022-12-15T07:13:11.577Z,86.23
2022-12-15T07:15:38.334Z,86.18
2022-12-15T07:18:05.569Z,85.86
2022-12-15T07:20:32.289Z,86.07
2022-12-15T07:22:58.700Z,86.48
2022-12-15T07:25:25.131Z,86.08
2022-12-15T07:27:51.534Z,86.43
2022-12-15T07:30:18.124Z,86.36
2022-12-15T07:32:50.105Z,86.55
2022-12-15T07:35:16.921Z,86.46
2022-12-15T07:37:43.492Z,86.35
2022-12-15T07:40:10.312Z,86.52
2022-12-15T07:42:36.959Z,86.79
2022-12-15T07:45:05.227Z,87.04
2022-12-15T07:47:32.146Z,86.49
2022-12-15T07:49:58.564Z,87.02
2022-12-15T07:52:25.010Z,86.55
2022-12-15T07:54:51.623Z,87.15
2022-12-15T07:57:18.677Z,87.05
2022-12-15T07:59:45.395Z,86.58
2022-12-15T08:02:13.142Z,86.64
2022-12-15T08:04:40.290Z,86.70
2022-12-15T08:07:07.660Z,86.92
2022-12-15T08:09:34.113Z,86.80
2022-12-15T08:12:00.698Z,86.92
2022-12-15T08:14:28.713Z,87.00
2022-12-15T08:16:55.604Z,87.46
2022-12-15T08:19:22.004Z,86.94
2022-12-15T08:21:48.594Z,87.40
2022-12-15T08:24:15.711Z,87.92
2022-12-15T08:26:43.346Z,87.92
2022-12-15T08:32:01.758Z,87.96
2022-12-15T08:34:28.390Z,87.86
2022-12-15T08:36:55.741Z,87.94
2022-12-15T08:39:22.235Z,87.56
2022-12-15T08:41:49.924Z,88.20
2022-12-15T08:44:16.979Z,88.10
2022-12-15T08:46:43.440Z,88.41
2022-12-15T08:49:10.264Z,88.63
2022-12-15T08:51:36.816Z,88.15
2022-12-15T08:54:03.330Z,88.60
2022-12-15T08:56:30.055Z,88.68
2022-12-15T08:58:58.926Z,88.61
2022-12-15T09:01:27.041Z,88.92
2022-12-15T09:03:55.151Z,88.58
2022-12-15T09:06:25.305Z,88.89
2022-12-15T09:08:57.290Z,88.81
2022-12-15T09:11:25.125Z,88.79
2022-12-15T09:13:51.567Z,89.16
2022-12-15T09:16:18.968Z,88.95
2022-12-15T09:18:48.223Z,89.27
2022-12-15T09:21:15.408Z,88.93
2022-12-15T09:23:42.690Z,89.11
2022-12-15T09:26:11.942Z,88.91
2022-12-15T09:28:38.736Z,89.22
2022-12-15T09:31:16.850Z,89.08
2022-12-15T09:33:44.138Z,89.14
2022-12-15T09:36:13.169Z,89.17
2022-12-15T09:38:41.123Z,89.26
2022-12-15T09:41:31.881Z,89.02
2022-12-15T09:44:07.261Z,89.19
2022-12-15T09:46:57.322Z,89.15
2022-12-15T09:49:29.772Z,89.13
2022-12-15T09:52:08.831Z,89.62
2022-12-15T09:54:37.647Z,89.48
2022-12-15T09:57:31.534Z,89.87
2022-12-15T10:00:05.007Z,89.81
2022-12-15T10:03:00.238Z,89.55
2022-12-15T10:06:25.998Z,89.72
2022-12-15T10:09:00.196Z,89.08
2022-12-15T10:11:40.300Z,89.60
2022-12-15T10:14:27.090Z,89.47
2022-12-15T10:17:06.757Z,89.55
2022-12-15T10:19:50.091Z,89.56
2022-12-15T10:22:23.627Z,89.95
2022-12-15T10:27:56.036Z,89.69
2022-12-15T10:30:22.776Z,89.78
2022-12-15T10:33:11.444Z,89.39
2022-12-15T10:35:39.639Z,89.27
2022-12-15T10:38:16.941Z,89.50
2022-12-15T10:40:50.256Z,89.31
2022-12-15T10:43:26.401Z,89.46
2022-12-15T10:46:18.663Z,89.23
2022-12-15T10:48:48.582Z,89.08
2022-12-15T10:51:31.669Z,88.90
2022-12-15T10:54:10.286Z,88.95
2022-12-15T10:56:50.260Z,89.28
2022-12-15T10:59:28.851Z,88.97
2022-12-15T11:01:55.527Z,89.10
2022-12-15T11:04:29.159Z,88.81
2022-12-15T11:07:01.883Z,88.86
2022-12-15T11:09:39.232Z,88.59
2022-12-15T11:12:39.134Z,88.45
2022-12-15T11:15:23.556Z,88.29
2022-12-15T11:18:02.706Z,87.36
2022-12-15T11:20:35.545Z,86.40
2022-12-15T11:23:11.326Z,85.10
2022-12-15T11:25:44.998Z,84.21
2022-12-15T11:28:18.213Z,83.55
2022-12-15T11:31:02.396Z,82.69
2022-12-15T11:33:29.240Z,83.10
2022-12-15T11:36:20.721Z,83.56
2022-12-15T11:38:52.730Z,83.74
2022-12-15T11:41:53.188Z,83.44
2022-12-15T11:44:23.431Z,83.66
2022-12-15T11:47:03.652Z,83.69
2022-12-15T11:50:14.002Z,83.02
2022-12-15T11:52:54.897Z,82.57
2022-12-15T11:55:33.306Z,81.76
2022-12-15T11:58:13.845Z,80.93
2022-12-15T12:00:50.599Z,81.80
2022-12-15T12:03:25.691Z,83.08
2022-12-15T12:06:07.948Z,83.34
2022-12-15T12:08:46.012Z,84.08
2022-12-15T12:11:22.516Z,84.26
2022-12-15T12:14:11.442Z,84.88
2022-12-15T12:17:02.372Z,84.91
2022-12-15T12:19:37.787Z,85.38
2022-12-15T12:22:13.578Z,85.27
2022-12-15T12:24:48.862Z,85.56
2022-12-15T12:27:28.957Z,85.68
2022-12-15T12:30:03.631Z,85.99
2022-12-15T12:32:50.531Z,86.46
2022-12-15T12:38:23.120Z,86.33
2022-12-15T12:41:05.409Z,86.63
2022-12-15T12:43:38.917Z,86.20
2022-12-15T12:46:14.578Z,86.77
2022-12-15T12:49:02.931Z,86.63
2022-12-15T12:51:36.261Z,86.76
2022-12-15T12:54:30.918Z,87.14
2022-12-15T12:56:57.321Z,86.99
2022-12-15T12:59:37.835Z,87.39
2022-12-15T13:02:24.555Z,87.40
2022-12-15T13:04:57.508Z,87.59
2022-12-15T13:07:31.699Z,87.52
2022-12-15T13:10:18.955Z,87.44
2022-12-15T13:15:58.648Z,87.61
2022-12-15T13:18:27.447Z,87.87
2022-12-15T13:20:55.288Z,87.92
2022-12-15T13:23:21.636Z,87.80
2022-12-15T13:25:57.052Z,87.95
2022-12-15T13:28:42.710Z,88.07
2022-12-15T13:31:21.865Z,87.90
2022-12-15T13:33:52.322Z,87.65
2022-12-15T13:36:36.770Z,88.06
2022-12-15T13:39:12.610Z,87.98
2022-12-15T13:42:23.733Z,87.89
2022-12-15T13:44:45.473Z,88.07
2022-12-15T13:47:31.312Z,88.09
2022-12-15T13:50:03.040Z,88.62
2022-12-15T13:53:16.446Z,88.20
2022-12-15T13:55:27.798Z,88.75
2022-12-15T13:58:01.384Z,88.99
2022-12-15T14:00:27.835Z,89.15
2022-12-15T14:03:11.008Z,89.15
2022-12-15T14:05:39.302Z,88.97
2022-12-15T14:08:16.572Z,89.11
2022-12-15T14:10:52.228Z,89.17
2022-12-15T14:13:28.791Z,89.51
2022-12-15T14:15:59.510Z,89.69
2022-12-15T14:18:29.356Z,89.36
2022-12-15T14:20:56.691Z,89.54
2022-12-15T14:23:29.750Z,89.63
2022-12-15T14:26:08.118Z,89.48
2022-12-15T14:28:40.255Z,89.31
2022-12-15T14:31:17.531Z,89.52
2022-12-15T14:33:46.850Z,89.38
2022-12-15T14:36:19.743Z,89.58
2022-12-15T14:39:07.712Z,89.13
2022-12-15T14:41:40.794Z,89.17
2022-12-15T14:44:36.632Z,89.05
2022-12-15T14:47:07.200Z,89.33
2022-12-15T14:49:45.123Z,88.91
2022-12-15T14:52:31.764Z,89.26
2022-12-15T14:55:01.058Z,89.02
2022-12-15T14:57:27.351Z,89.11
2022-12-15T14:59:53.762Z,89.50
2022-12-15T15:02:24.986Z,89.51
2022-12-15T15:03:05.022Z,86.11
2022-12-15T15:03:12.979Z,87.82
2022-12-15T15:05:27.738Z,89.02
2022-12-15T15:07:56.640Z,89.50
2022-12-15T15:10:28.876Z,89.30
2022-12-15T15:12:55.544Z,89.32
2022-12-15T15:15:26.439Z,89.53
2022-12-15T15:17:55.790Z,89.93
2022-12-15T15:20:26.808Z,89.57
2022-12-15T15:23:08.280Z,89.73
2022-12-15T15:25:48.803Z,89.73
2022-12-15T15:28:18.127Z,89.98
2022-12-15T15:30:56.638Z,89.99
2022-12-15T15:33:24.869Z,90.03
2022-12-15T15:35:54.853Z,90.18
2022-12-15T15:38:35.721Z,90.07
2022-12-15T15:41:15.407Z,90.44
2022-12-15T15:43:42.152Z,90.36
2022-12-15T15:46:14.969Z,90.30
2022-12-15T15:48:48.081Z,90.31
2022-12-15T15:51:14.631Z,90.63
2022-12-15T15:53:41.167Z,90.72
2022-12-15T15:56:11.260Z,90.65
2022-12-15T15:58:38.101Z,90.59
2022-12-15T16:01:09.528Z,90.68
2022-12-15T16:03:39.695Z,90.97
2022-12-15T16:06:14.203Z,90.73
2022-12-15T16:08:40.674Z,90.75
2022-12-15T16:11:11.731Z,91.16
2022-12-15T16:13:38.614Z,90.82
2022-12-15T16:16:05.645Z,90.85
2022-12-15T16:18:32.783Z,90.56
2022-12-15T16:20:59.466Z,90.57
2022-12-15T16:23:29.776Z,90.77
2022-12-15T16:25:58.322Z,90.40
2022-12-15T16:28:30.356Z,90.68
2022-12-15T16:31:01.624Z,90.50
2022-12-15T16:33:28.359Z,90.52
2022-12-15T16:35:54.876Z,90.60
2022-12-15T16:38:30.767Z,90.49
2022-12-15T16:41:04.112Z,90.25
2022-12-15T16:43:36.650Z,90.27
2022-12-15T16:46:07.038Z,90.02
2022-12-15T16:48:34.014Z,90.16
2022-12-15T16:51:00.827Z,90.50
2022-12-15T16:53:33.086Z,90.55
2022-12-15T16:56:03.472Z,90.48
2022-12-15T16:58:31.441Z,90.54
2022-12-15T17:00:58.476Z,91.04
2022-12-15T17:03:27.987Z,90.38
2022-12-15T17:05:57.718Z,90.46
2022-12-15T17:08:51.451Z,90.61
2022-12-15T17:11:27.217Z,90.39
2022-12-15T17:13:56.574Z,90.89
2022-12-15T17:16:24.615Z,90.86
2022-12-15T17:18:51.607Z,90.79
2022-12-15T17:21:20.592Z,90.98
2022-12-15T17:23:56.681Z,90.90
2022-12-15T17:26:32.157Z,90.73
2022-12-15T17:29:01.540Z,90.84
2022-12-15T17:31:34.690Z,90.77
2022-12-15T17:34:02.601Z,90.79
2022-12-15T17:36:29.193Z,91.18
2022-12-15T17:38:58.180Z,90.98
2022-12-15T17:41:57.538Z,91.22
2022-12-15T17:44:33.042Z,91.09
2022-12-15T17:47:01.833Z,91.08
2022-12-15T17:49:34.679Z,91.12
2022-12-15T17:52:05.243Z,91.23
2022-12-15T17:54:31.615Z,91.38
2022-12-15T17:56:58.577Z,91.44
2022-12-15T17:59:24.931Z,91.78
2022-12-15T18:01:52.103Z,91.62
2022-12-15T18:04:18.686Z,91.70
2022-12-15T18:06:45.316Z,91.90
2022-12-15T18:09:17.407Z,91.80
2022-12-15T18:11:46.549Z,91.93
2022-12-15T18:14:15.233Z,91.54
2022-12-15T18:16:42.229Z,91.74
2022-12-15T18:19:08.725Z,91.74
2022-12-15T18:21:35.536Z,91.31
2022-12-15T18:24:02.361Z,91.87
2022-12-15T18:26:28.888Z,91.57
2022-12-15T18:28:55.267Z,91.77
2022-12-15T18:31:30.296Z,91.54
2022-12-15T18:34:04.075Z,91.73
2022-12-15T18:36:31.196Z,91.55
2022-12-15T18:38:57.568Z,91.68
2022-12-15T18:41:23.916Z,91.58
2022-12-15T18:43:56.277Z,91.45
2022-12-15T18:46:22.675Z,91.50
2022-12-15T18:48:49.080Z,91.47
2022-12-15T18:51:21.517Z,91.18
2022-12-15T18:53:49.014Z,91.36
2022-12-15T18:56:18.115Z,91.23
2022-12-15T18:58:44.822Z,91.22
2022-12-15T19:01:11.244Z,91.38
2022-12-15T19:03:41.066Z,91.08
2022-12-15T19:06:25.978Z,91.45
2022-12-15T19:08:52.919Z,91.59
2022-12-15T19:11:30.806Z,91.18
2022-12-15T19:13:59.061Z,91.18
2022-12-15T19:16:25.551Z,91.21
2022-12-15T19:19:16.963Z,91.17
2022-12-15T19:22:02.371Z,90.93
2022-12-15T19:24:49.745Z,91.27
2022-12-15T19:27:20.822Z,91.16
2022-12-15T19:29:50.155Z,91.42
2022-12-15T19:32:16.730Z,91.33
2022-12-15T19:34:44.203Z,91.59
2022-12-15T19:37:25.091Z,91.25
2022-12-15T19:39:53.014Z,91.32
2022-12-15T19:42:29.827Z,91.79
2022-12-15T19:44:56.205Z,91.48
2022-12-15T19:47:22.702Z,91.38
2022-12-15T19:49:49.097Z,91.13
2022-12-15T19:52:19.665Z,91.28
2022-12-15T19:54:49.754Z,91.08
2022-12-15T19:57:18.390Z,90.88
2022-12-15T19:59:45.019Z,91.11
2022-12-15T20:02:17.770Z,90.95
2022-12-15T20:04:45.271Z,91.14
2022-12-15T20:07:18.692Z,90.91
2022-12-15T20:09:45.178Z,90.93
2022-12-15T20:12:19.055Z,91.11
2022-12-15T20:14:46.079Z,91.09
2022-12-15T20:17:12.708Z,91.10
2022-12-15T20:19:39.084Z,91.01
2022-12-15T20:22:06.586Z,91.30
2022-12-15T20:24:33.387Z,91.30
2022-12-15T20:26:59.814Z,91.66
2022-12-15T20:29:29.331Z,90.99
2022-12-15T20:31:57.978Z,91.29
2022-12-15T20:34:25.233Z,91.13
2022-12-15T20:36:51.811Z,90.93
2022-12-15T20:39:28.354Z,90.76
2022-12-15T20:41:56.235Z,90.97
2022-12-15T20:44:24.049Z,91.10
2022-12-15T20:46:50.779Z,91.06
2022-12-15T20:49:20.597Z,90.80
2022-12-15T20:51:48.613Z,90.72
2022-12-15T20:54:18.032Z,90.68
2022-12-15T20:56:45.319Z,90.89
2022-12-15T20:59:12.196Z,90.83
2022-12-15T21:01:39.458Z,90.59
2022-12-15T21:04:27.884Z,90.55
2022-12-15T21:06:55.832Z,90.63
2022-12-15T21:09:22.889Z,90.41
2022-12-15T21:11:51.744Z,90.49
2022-12-15T21:14:22.346Z,90.78
2022-12-15T21:16:49.388Z,91.04
2022-12-15T21:19:20.737Z,90.54
2022-12-15T21:21:51.730Z,90.75
2022-12-15T21:24:24.674Z,90.87
2022-12-15T21:26:52.148Z,90.71
2022-12-15T21:29:21.965Z,90.95
2022-12-15T21:31:48.741Z,90.66
2022-12-15T21:34:15.311Z,91.14
2022-12-15T21:36:43.993Z,91.00
2022-12-15T21:39:15.807Z,91.10
2022-12-15T21:41:43.134Z,90.98
2022-12-15T21:44:13.950Z,90.70
2022-12-15T21:46:41.204Z,90.72
2022-12-15T21:49:15.363Z,91.01
2022-12-15T21:51:44.318Z,90.70
2022-12-15T21:54:18.277Z,90.60
2022-12-15T21:56:46.603Z,90.82
2022-12-15T21:59:15.219Z,90.80
2022-12-15T22:01:42.368Z,90.94
2022-12-15T22:04:21.262Z,91.23
2022-12-15T22:06:50.823Z,90.79
2022-12-15T22:09:18.660Z,91.09
2022-12-15T22:11:48.364Z,91.19
2022-12-15T22:14:29.484Z,91.04
2022-12-15T22:16:57.120Z,91.11
2022-12-15T22:19:23.902Z,91.19
2022-12-15T22:21:50.599Z,90.72
2022-12-15T22:24:19.021Z,90.96
2022-12-15T22:26:47.096Z,91.03
2022-12-15T22:29:17.841Z,91.01
2022-12-15T22:31:44.400Z,91.24
2022-12-15T22:34:16.068Z,91.15
2022-12-15T22:36:43.331Z,91.17
2022-12-15T22:39:11.150Z,91.31
2022-12-15T22:41:40.594Z,91.25
2022-12-15T22:44:16.569Z,91.72
2022-12-15T22:46:43.143Z,91.62
2022-12-15T22:49:14.816Z,91.97
2022-12-15T22:51:41.438Z,91.36
2022-12-15T22:54:19.935Z,91.75
2022-12-15T22:56:49.570Z,91.61
2022-12-15T22:59:34.308Z,92.03
2022-12-15T23:02:04.746Z,91.39
2022-12-15T23:04:31.942Z,91.76
2022-12-15T23:07:02.241Z,91.45
2022-12-15T23:09:28.963Z,91.24
2022-12-15T23:11:55.740Z,91.28
2022-12-15T23:14:42.278Z,91.10
2022-12-15T23:17:09.001Z,90.99
2022-12-15T23:19:35.524Z,91.15
2022-12-15T23:22:01.969Z,90.87
2022-12-15T23:24:28.416Z,90.78
2022-12-15T23:26:54.832Z,90.83
2022-12-15T23:29:21.450Z,91.09
2022-12-15T23:31:47.899Z,90.59
2022-12-15T23:34:14.318Z,90.99
2022-12-15T23:36:40.694Z,90.80
2022-12-15T23:39:07.105Z,90.74
2022-12-15T23:41:34.968Z,90.69
2022-12-15T23:44:01.345Z,91.07
2022-12-15T23:46:27.802Z,90.89
2022-12-15T23:48:55.080Z,90.51
2022-12-15T23:51:21.563Z,90.59
2022-12-15T23:53:48.482Z,90.64
2022-12-15T23:56:20.953Z,90.67
2022-12-15T23:58:49.048Z,90.52
